createdAt,value
2023-05-13T00:02:13.898Z,14.77
2023-05-13T00:04:38.664Z,14.75
2023-05-13T00:07:03.754Z,14.20
2023-05-13T00:09:28.450Z,15.25
2023-05-13T00:11:53.051Z,14.13
2023-05-13T00:14:19.348Z,24.17
2023-05-13T00:16:44.135Z,16.85
2023-05-13T00:19:08.812Z,20.30
2023-05-13T00:21:33.963Z,18.40
2023-05-13T00:23:58.410Z,19.08
2023-05-13T00:26:25.223Z,14.55
2023-05-13T00:28:49.961Z,14.45
2023-05-13T00:31:15.913Z,15.43
2023-05-13T00:33:40.611Z,14.73
2023-05-13T00:36:05.654Z,14.52
2023-05-13T00:38:30.145Z,18.83
2023-05-13T00:40:54.738Z,16.75
2023-05-13T00:43:19.269Z,17.08
2023-05-13T00:45:44.382Z,15.88
2023-05-13T00:48:10.656Z,18.50
2023-05-13T00:50:35.653Z,15.05
2023-05-13T00:53:01.115Z,12.35
2023-05-13T00:55:25.774Z,19.48
2023-05-13T00:57:50.335Z,21.60
2023-05-13T01:00:16.371Z,16.40
2023-05-13T01:02:47.331Z,18.35
2023-05-13T01:05:23.625Z,20.33
2023-05-13T01:07:59.587Z,15.20
2023-05-13T01:10:43.887Z,14.35
2023-05-13T01:13:13.447Z,11.30
2023-05-13T01:15:44.160Z,14.95
2023-05-13T01:18:14.864Z,15.27
2023-05-13T01:20:43.716Z,17.45
2023-05-13T01:23:09.918Z,17.60
2023-05-13T01:25:35.226Z,17.50
2023-05-13T01:28:00.167Z,15.45
2023-05-13T01:30:25.655Z,18.73
2023-05-13T01:32:53.025Z,14.57
2023-05-13T01:35:18.732Z,16.30
2023-05-13T01:37:44.763Z,13.32
2023-05-13T01:40:28.011Z,14.93
2023-05-13T01:42:58.683Z,17.83
2023-05-13T01:45:23.546Z,17.02
2023-05-13T01:47:48.149Z,19.80
2023-05-13T01:50:12.976Z,15.02
2023-05-13T01:52:39.021Z,17.42
2023-05-13T01:55:03.612Z,19.30
2023-05-13T01:57:30.648Z,21.60
2023-05-13T01:59:57.413Z,20.15
2023-05-13T02:02:22.615Z,17.42
2023-05-13T02:04:47.374Z,16.40
2023-05-13T02:07:12.590Z,25.73
2023-05-13T02:09:37.090Z,18.52
2023-05-13T02:12:03.584Z,20.60
2023-05-13T02:14:29.537Z,20.90
2023-05-13T02:16:54.672Z,23.20
2023-05-13T02:19:20.014Z,21.55
2023-05-13T02:21:46.752Z,19.10
2023-05-13T02:24:11.336Z,20.42
2023-05-13T02:26:35.911Z,16.10
2023-05-13T02:29:00.509Z,24.52
2023-05-13T02:31:28.642Z,22.13
2023-05-13T02:33:53.287Z,21.75
2023-05-13T02:36:19.125Z,21.35
2023-05-13T02:38:44.490Z,23.50
2023-05-13T02:41:11.434Z,21.20
2023-05-13T02:43:36.342Z,22.52
2023-05-13T02:46:04.569Z,28.02
2023-05-13T02:48:32.195Z,25.67
2023-05-13T02:50:58.374Z,28.90
2023-05-13T02:53:23.471Z,33.20
2023-05-13T02:55:52.836Z,22.35
2023-05-13T02:58:17.805Z,23.58
2023-05-13T03:00:44.051Z,25.92
2023-05-13T03:03:08.899Z,25.75
2023-05-13T03:05:35.088Z,24.15
2023-05-13T03:07:59.556Z,21.33
2023-05-13T03:10:24.156Z,22.60
2023-05-13T03:12:48.919Z,26.70
2023-05-13T03:15:13.554Z,26.55
2023-05-13T03:17:42.615Z,28.55
2023-05-13T03:20:08.541Z,23.83
2023-05-13T03:22:34.880Z,21.00
2023-05-13T03:24:59.659Z,28.85
2023-05-13T03:27:29.928Z,26.65
2023-05-13T03:29:54.682Z,25.38
2023-05-13T03:32:20.819Z,22.88
2023-05-13T03:34:45.385Z,27.52
2023-05-13T03:37:10.104Z,26.50
2023-05-13T03:39:36.431Z,23.25
2023-05-13T03:42:01.212Z,22.55
2023-05-13T03:44:25.908Z,27.88
2023-05-13T03:46:50.862Z,26.70
2023-05-13T03:49:18.031Z,23.88
2023-05-13T03:51:42.526Z,23.92
2023-05-13T03:54:07.526Z,19.77
2023-05-13T03:56:33.337Z,18.83
2023-05-13T03:58:59.491Z,22.02
2023-05-13T04:01:24.096Z,22.60
2023-05-13T04:03:49.903Z,22.73
2023-05-13T04:06:15.096Z,21.83
2023-05-13T04:08:39.692Z,25.80
2023-05-13T04:11:04.325Z,23.88
2023-05-13T04:13:30.180Z,21.23
2023-05-13T04:15:55.486Z,26.55
2023-05-13T04:18:20.089Z,22.50
2023-05-13T04:20:44.833Z,21.80
2023-05-13T04:23:10.436Z,21.65
2023-05-13T04:25:36.899Z,19.75
2023-05-13T04:28:01.452Z,22.80
2023-05-13T04:30:31.237Z,23.90
2023-05-13T04:32:57.858Z,19.52
2023-05-13T04:35:22.952Z,26.08
2023-05-13T04:37:53.631Z,22.88
2023-05-13T04:40:19.658Z,25.95
2023-05-13T04:42:45.349Z,19.25
2023-05-13T04:45:10.874Z,20.05
2023-05-13T04:47:38.300Z,16.75
2023-05-13T04:50:03.765Z,18.92
2023-05-13T04:52:30.309Z,24.60
2023-05-13T04:54:55.260Z,23.73
2023-05-13T04:57:19.772Z,20.58
2023-05-13T04:59:44.455Z,18.75
2023-05-13T05:02:09.063Z,20.30
2023-05-13T05:04:35.004Z,18.10
2023-05-13T05:07:02.262Z,18.55
2023-05-13T05:09:26.950Z,26.27
2023-05-13T05:11:53.186Z,16.83
2023-05-13T05:14:20.745Z,14.80
2023-05-13T05:16:47.500Z,17.10
2023-05-13T05:19:12.802Z,23.77
2023-05-13T05:21:39.341Z,23.88
2023-05-13T05:24:04.719Z,36.60
2023-05-13T05:26:29.180Z,38.03
2023-05-13T05:28:53.669Z,19.52
2023-05-13T05:31:18.348Z,13.77
2023-05-13T05:33:42.950Z,35.70
2023-05-13T05:36:10.257Z,29.17
2023-05-13T05:38:36.377Z,19.52
2023-05-13T05:41:01.331Z,16.55
2023-05-13T05:43:26.637Z,13.88
2023-05-13T05:45:51.368Z,19.27
2023-05-13T05:48:17.390Z,15.25
2023-05-13T05:50:42.654Z,14.50
2023-05-13T05:53:10.319Z,12.40
2023-05-13T05:55:38.205Z,13.27
2023-05-13T05:58:05.756Z,11.60
2023-05-13T06:00:33.342Z,13.57
2023-05-13T06:02:58.278Z,14.90
2023-05-13T06:05:23.613Z,11.82
2023-05-13T06:07:48.430Z,8.30
2023-05-13T06:10:13.149Z,13.98
2023-05-13T06:12:40.918Z,15.82
2023-05-13T06:15:10.741Z,14.15
2023-05-13T06:17:35.848Z,17.85
2023-05-13T06:20:02.421Z,13.25
2023-05-13T06:22:28.438Z,11.82
2023-05-13T06:24:52.895Z,15.10
2023-05-13T06:27:19.408Z,15.88
2023-05-13T06:29:45.370Z,15.48
2023-05-13T06:32:10.469Z,21.48
2023-05-13T06:34:35.034Z,16.27
2023-05-13T06:36:59.804Z,14.45
2023-05-13T06:39:24.550Z,12.65
2023-05-13T06:41:50.801Z,10.63
2023-05-13T06:44:19.046Z,14.65
2023-05-13T06:46:46.555Z,9.90
2023-05-13T06:49:11.343Z,10.57
2023-05-13T06:51:36.078Z,9.93
2023-05-13T06:54:00.586Z,16.80
2023-05-13T06:56:25.940Z,17.85
2023-05-13T06:58:56.482Z,12.70
2023-05-13T07:01:21.326Z,12.88
2023-05-13T07:03:47.634Z,10.25
2023-05-13T07:06:12.647Z,11.25
2023-05-13T07:08:37.370Z,11.50
2023-05-13T07:11:04.044Z,9.38
2023-05-13T07:13:33.597Z,10.45
2023-05-13T07:15:58.660Z,16.02
2023-05-13T07:18:25.703Z,14.35
2023-05-13T07:20:53.445Z,10.07
2023-05-13T07:23:17.934Z,16.33
2023-05-13T07:25:44.428Z,14.95
2023-05-13T07:28:09.358Z,11.95
2023-05-13T07:30:33.849Z,11.10
2023-05-13T07:33:00.305Z,8.40
2023-05-13T07:35:25.190Z,15.57
2023-05-13T07:37:51.145Z,6.82
2023-05-13T07:40:15.820Z,13.48
2023-05-13T07:42:40.367Z,11.68
2023-05-13T07:45:05.502Z,8.80
2023-05-13T07:47:31.809Z,10.43
2023-05-13T07:49:56.971Z,9.13
2023-05-13T07:52:21.580Z,23.80
2023-05-13T07:54:47.593Z,10.35
2023-05-13T07:57:12.056Z,6.63
2023-05-13T07:59:36.485Z,7.18
2023-05-13T08:02:01.091Z,6.85
2023-05-13T08:04:26.463Z,7.35
2023-05-13T08:06:51.150Z,11.00
2023-05-13T08:09:15.980Z,8.80
2023-05-13T08:11:41.851Z,5.82
2023-05-13T08:14:07.156Z,7.47
2023-05-13T08:16:32.585Z,7.18
2023-05-13T08:18:57.675Z,11.43
2023-05-13T08:21:22.281Z,8.40
2023-05-13T08:23:47.090Z,5.70
2023-05-13T08:26:13.650Z,5.50
2023-05-13T08:28:39.632Z,10.48
2023-05-13T08:31:05.040Z,5.38
2023-05-13T08:33:30.158Z,6.65
2023-05-13T08:35:54.773Z,5.70
2023-05-13T08:38:19.338Z,6.30
2023-05-13T08:40:44.144Z,9.60
2023-05-13T08:43:09.868Z,9.38
2023-05-13T08:45:37.808Z,6.20
2023-05-13T08:48:04.153Z,8.88
2023-05-13T08:50:30.116Z,6.35
2023-05-13T08:52:54.988Z,7.30
2023-05-13T08:55:20.475Z,5.32
2023-05-13T08:57:45.710Z,8.98
2023-05-13T09:00:11.108Z,9.85
2023-05-13T09:02:37.637Z,9.55
2023-05-13T09:05:06.909Z,5.90
2023-05-13T09:07:32.147Z,9.93
2023-05-13T09:09:57.280Z,12.65
2023-05-13T09:12:44.194Z,8.70
2023-05-13T09:15:10.815Z,8.70
2023-05-13T09:17:39.757Z,11.27
2023-05-13T09:20:09.906Z,6.93
2023-05-13T09:22:34.709Z,8.90
2023-05-13T09:24:59.732Z,8.25
2023-05-13T09:27:38.367Z,7.88
2023-05-13T09:30:03.049Z,10.50
2023-05-13T09:32:30.822Z,7.80
2023-05-13T09:34:56.854Z,8.65
2023-05-13T09:37:22.072Z,7.88
2023-05-13T09:39:46.692Z,5.90
2023-05-13T09:42:17.047Z,7.13
2023-05-13T09:44:41.822Z,6.50
2023-05-13T09:47:06.822Z,5.10
2023-05-13T09:49:33.346Z,7.57
2023-05-13T09:51:59.181Z,6.88
2023-05-13T09:54:23.798Z,8.63
2023-05-13T09:56:48.822Z,5.18
2023-05-13T09:59:13.535Z,6.32
2023-05-13T10:01:38.203Z,4.90
2023-05-13T10:04:03.216Z,5.95
2023-05-13T10:06:29.085Z,10.05
2023-05-13T10:08:57.005Z,11.07
2023-05-13T10:11:21.838Z,8.75
2023-05-13T10:13:52.294Z,6.20
2023-05-13T10:16:18.726Z,8.35
2023-05-13T10:18:43.634Z,6.55
2023-05-13T10:21:08.896Z,5.93
2023-05-13T10:23:36.042Z,5.82
2023-05-13T10:26:02.676Z,6.63
2023-05-13T10:28:35.691Z,10.75
2023-05-13T10:31:00.319Z,10.07
2023-05-13T10:33:25.528Z,8.90
2023-05-13T10:36:01.969Z,7.18
2023-05-13T10:38:39.609Z,6.43
2023-05-13T10:41:13.081Z,5.47
2023-05-13T10:43:46.891Z,8.85
2023-05-13T10:46:20.543Z,9.52
2023-05-13T10:48:49.087Z,6.03
2023-05-13T10:51:17.747Z,7.93
2023-05-13T10:53:47.654Z,6.07
2023-05-13T10:58:39.247Z,7.57
2023-05-13T11:01:20.263Z,13.65
2023-05-13T11:03:53.974Z,9.98
2023-05-13T11:06:20.663Z,8.38
2023-05-13T11:08:46.453Z,7.38
2023-05-13T11:11:37.272Z,7.03
2023-05-13T11:14:10.043Z,5.53
2023-05-13T11:16:35.261Z,4.63
2023-05-13T11:19:02.257Z,8.20
2023-05-13T11:21:35.953Z,7.47
2023-05-13T11:24:03.853Z,5.38
2023-05-13T11:26:28.503Z,7.20
2023-05-13T11:29:07.372Z,6.43
2023-05-13T11:31:45.694Z,6.75
2023-05-13T11:34:11.743Z,9.13
2023-05-13T11:36:37.383Z,4.30
2023-05-13T11:39:07.837Z,4.82
2023-05-13T11:41:33.601Z,4.85
2023-05-13T11:44:03.100Z,5.40
2023-05-13T11:46:29.268Z,9.85
2023-05-13T11:48:53.896Z,6.43
2023-05-13T11:51:20.818Z,8.18
2023-05-13T11:53:45.446Z,7.97
2023-05-13T11:56:13.414Z,5.60
2023-05-13T11:58:37.928Z,5.82
2023-05-13T12:01:05.648Z,4.95
2023-05-13T12:03:32.109Z,5.63
2023-05-13T12:06:02.846Z,7.30
2023-05-13T12:08:27.366Z,15.07
2023-05-13T12:10:55.036Z,8.07
2023-05-13T12:13:25.074Z,5.95
2023-05-13T12:15:50.994Z,8.98
2023-05-13T12:18:20.396Z,7.05
2023-05-13T12:20:47.157Z,10.65
2023-05-13T12:23:14.148Z,7.65
2023-05-13T12:25:44.207Z,6.15
2023-05-13T12:28:10.591Z,4.80
2023-05-13T12:30:35.418Z,6.72
2023-05-13T12:33:00.480Z,6.15
2023-05-13T12:35:25.091Z,7.05
2023-05-13T12:38:02.408Z,9.25
2023-05-13T12:40:28.386Z,4.68
2023-05-13T12:42:52.859Z,6.00
2023-05-13T12:45:17.726Z,5.45
2023-05-13T12:47:52.579Z,6.70
2023-05-13T12:50:18.261Z,7.38
2023-05-13T12:52:42.960Z,8.40
2023-05-13T12:55:10.122Z,8.07
2023-05-13T12:57:34.575Z,6.18
2023-05-13T12:59:59.076Z,5.20
2023-05-13T13:02:23.534Z,6.90
2023-05-13T13:04:48.334Z,4.95
2023-05-13T13:07:14.797Z,8.75
2023-05-13T13:09:39.548Z,4.63
2023-05-13T13:12:05.741Z,8.73
2023-05-13T13:14:30.360Z,4.80
2023-05-13T13:16:55.315Z,4.00
2023-05-13T13:19:20.093Z,5.88
2023-05-13T13:21:44.684Z,4.80
2023-05-13T13:24:09.474Z,7.13
2023-05-13T13:26:34.049Z,6.63
2023-05-13T13:29:02.485Z,4.10
2023-05-13T13:31:28.200Z,5.13
2023-05-13T13:33:53.853Z,6.97
2023-05-13T13:36:18.804Z,5.60
2023-05-13T13:38:44.952Z,5.00
2023-05-13T13:41:09.620Z,4.95
2023-05-13T13:43:34.111Z,4.78
2023-05-13T13:45:59.957Z,6.20
2023-05-13T13:48:24.674Z,9.35
2023-05-13T13:50:50.655Z,7.80
2023-05-13T13:53:16.937Z,12.50
2023-05-13T13:55:41.509Z,9.05
2023-05-13T13:58:06.124Z,10.35
2023-05-13T14:00:30.679Z,5.50
2023-05-13T14:02:56.747Z,7.72
2023-05-13T14:05:21.566Z,4.95
2023-05-13T14:07:46.431Z,5.60
2023-05-13T14:10:11.734Z,3.58
2023-05-13T14:12:36.953Z,5.30
2023-05-13T14:15:01.430Z,6.70
2023-05-13T14:17:27.493Z,5.70
2023-05-13T14:19:55.713Z,7.28
2023-05-13T14:22:22.571Z,9.95
2023-05-13T14:24:46.966Z,3.58
2023-05-13T14:27:11.851Z,4.15
2023-05-13T14:29:36.454Z,6.65
2023-05-13T14:32:02.142Z,4.18
2023-05-13T14:34:26.770Z,5.32
2023-05-13T14:36:53.529Z,3.55
2023-05-13T14:39:18.039Z,5.03
2023-05-13T14:41:46.170Z,6.78
2023-05-13T14:44:10.660Z,5.38
2023-05-13T14:46:37.278Z,6.28
2023-05-13T14:49:01.787Z,6.97
2023-05-13T14:51:26.453Z,2.83
2023-05-13T14:53:52.359Z,7.75
2023-05-13T14:56:16.880Z,3.70
2023-05-13T14:58:41.578Z,5.78
2023-05-13T15:01:06.516Z,5.03
2023-05-13T15:03:31.325Z,5.60
2023-05-13T15:05:56.252Z,9.65
2023-05-13T15:08:20.954Z,6.93
2023-05-13T15:10:48.350Z,4.25
2023-05-13T15:13:12.990Z,9.52
2023-05-13T15:15:37.687Z,5.47
2023-05-13T15:18:02.481Z,4.97
2023-05-13T15:20:28.405Z,5.38
2023-05-13T15:22:52.899Z,7.55
2023-05-13T15:25:17.665Z,8.15
2023-05-13T15:27:46.544Z,8.05
2023-05-13T15:30:11.454Z,5.05
2023-05-13T15:32:35.995Z,5.35
2023-05-13T15:35:00.509Z,5.97
2023-05-13T15:37:24.971Z,3.78
2023-05-13T15:39:49.603Z,6.75
2023-05-13T15:42:14.845Z,3.55
2023-05-13T15:44:40.794Z,6.40
2023-05-13T15:47:06.228Z,7.75
2023-05-13T15:49:31.401Z,6.78
2023-05-13T15:51:56.233Z,8.15
2023-05-13T15:54:20.756Z,3.08
2023-05-13T15:56:45.144Z,5.10
2023-05-13T15:59:13.479Z,5.25
2023-05-13T16:01:42.762Z,4.97
2023-05-13T16:04:07.384Z,6.82
2023-05-13T16:06:33.118Z,3.88
2023-05-13T16:08:57.709Z,7.13
2023-05-13T16:11:22.227Z,5.30
2023-05-13T16:13:46.822Z,8.07
2023-05-13T16:16:11.343Z,9.95
2023-05-13T16:18:37.484Z,5.30
2023-05-13T16:21:02.078Z,4.53
2023-05-13T16:23:26.623Z,8.73
2023-05-13T16:25:51.148Z,6.13
2023-05-13T16:28:15.815Z,5.65
2023-05-13T16:30:41.354Z,4.90
2023-05-13T16:33:06.293Z,5.50
2023-05-13T16:35:32.306Z,7.28
2023-05-13T16:37:58.691Z,7.20
2023-05-13T16:40:23.945Z,4.38
2023-05-13T16:42:48.765Z,4.22
2023-05-13T16:45:13.450Z,4.55
2023-05-13T16:47:39.191Z,8.93
2023-05-13T16:50:08.592Z,7.05
2023-05-13T16:52:34.890Z,10.18
2023-05-13T16:54:59.439Z,9.90
2023-05-13T16:57:23.989Z,10.07
2023-05-13T16:59:48.665Z,6.07
2023-05-13T17:02:13.494Z,6.90
2023-05-13T17:04:38.257Z,10.45
2023-05-13T17:07:02.829Z,13.18
2023-05-13T17:09:30.168Z,9.05
2023-05-13T17:11:55.472Z,11.65
2023-05-13T17:14:19.961Z,11.18
2023-05-13T17:16:45.131Z,8.25
2023-05-13T17:19:10.232Z,10.20
2023-05-13T17:21:34.942Z,7.82
2023-05-13T17:23:59.576Z,11.82
2023-05-13T17:26:26.419Z,11.70
2023-05-13T17:28:51.401Z,18.25
2023-05-13T17:31:16.030Z,12.85
2023-05-13T17:33:40.871Z,9.00
2023-05-13T17:36:06.341Z,12.02
2023-05-13T17:38:30.912Z,10.77
2023-05-13T17:40:55.673Z,4.95
2023-05-13T17:43:21.789Z,6.55
2023-05-13T17:45:46.303Z,9.13
2023-05-13T17:48:10.858Z,8.73
2023-05-13T17:50:35.801Z,7.43
2023-05-13T17:53:02.062Z,6.40
2023-05-13T17:55:29.687Z,12.93
2023-05-13T17:57:55.600Z,10.23
2023-05-13T18:00:22.141Z,11.27
2023-05-13T18:02:47.201Z,11.02
2023-05-13T18:05:12.047Z,12.52
2023-05-13T18:07:40.151Z,8.13
2023-05-13T18:10:06.288Z,13.52
2023-05-13T18:12:31.287Z,11.35
2023-05-13T18:14:59.257Z,20.00
2023-05-13T18:17:27.750Z,16.42
2023-05-13T18:19:55.653Z,10.70
2023-05-13T18:22:21.655Z,11.68
2023-05-13T18:24:50.447Z,11.95
2023-05-13T18:27:15.148Z,14.75
2023-05-13T18:29:39.956Z,11.68
2023-05-13T18:32:05.040Z,9.02
2023-05-13T18:34:31.454Z,14.90
2023-05-13T18:37:00.208Z,20.98
2023-05-13T18:39:24.780Z,17.17
2023-05-13T18:41:49.578Z,22.55
2023-05-13T18:44:15.637Z,14.98
2023-05-13T18:46:40.379Z,14.68
2023-05-13T18:49:05.181Z,10.05
2023-05-13T18:51:35.741Z,18.83
2023-05-13T18:54:00.692Z,16.90
2023-05-13T18:56:33.301Z,20.30
2023-05-13T18:59:08.802Z,15.73
2023-05-13T19:01:33.882Z,11.57
2023-05-13T19:04:01.503Z,16.88
2023-05-13T19:06:26.402Z,16.45
2023-05-13T19:08:59.926Z,15.15
2023-05-13T19:11:29.149Z,16.38
2023-05-13T19:13:55.338Z,17.45
2023-05-13T19:16:26.622Z,18.73
2023-05-13T19:18:51.602Z,15.73
2023-05-13T19:21:16.545Z,9.23
2023-05-13T19:23:41.150Z,14.93
2023-05-13T19:26:07.498Z,14.13
2023-05-13T19:28:34.833Z,12.15
2023-05-13T19:30:59.386Z,8.98
2023-05-13T19:33:24.299Z,20.60
2023-05-13T19:35:49.264Z,9.10
2023-05-13T19:38:18.312Z,10.70
2023-05-13T19:40:44.832Z,10.37
2023-05-13T19:43:12.801Z,13.98
2023-05-13T19:45:42.260Z,13.93
2023-05-13T19:48:10.090Z,16.08
2023-05-13T19:50:39.966Z,16.92
2023-05-13T19:53:07.605Z,15.73
2023-05-13T19:55:33.006Z,19.00
2023-05-13T19:57:57.930Z,25.10
2023-05-13T20:00:25.166Z,18.48
2023-05-13T20:02:51.939Z,18.33
2023-05-13T20:05:16.670Z,19.42
2023-05-13T20:07:41.534Z,24.10
2023-05-13T20:10:08.450Z,17.02
2023-05-13T20:12:33.789Z,18.63
2023-05-13T20:14:59.412Z,19.92
2023-05-13T20:17:26.036Z,12.23
2023-05-13T20:19:51.668Z,16.77
2023-05-13T20:22:18.189Z,12.13
2023-05-13T20:24:50.270Z,13.60
2023-05-13T20:27:31.803Z,16.23
2023-05-13T20:29:57.473Z,13.00
2023-05-13T20:32:24.983Z,14.18
2023-05-13T20:34:54.619Z,12.73
2023-05-13T20:37:21.838Z,14.57
2023-05-13T20:39:48.027Z,12.63
2023-05-13T20:42:12.987Z,13.15
2023-05-13T20:44:37.512Z,14.57
2023-05-13T20:47:04.091Z,14.63
2023-05-13T20:49:28.752Z,15.57
2023-05-13T20:51:54.900Z,15.57
2023-05-13T20:54:19.573Z,10.65
2023-05-13T20:56:44.513Z,13.07
2023-05-13T20:59:09.554Z,12.85
2023-05-13T21:01:34.837Z,18.33
2023-05-13T21:03:59.678Z,11.75
2023-05-13T21:06:28.177Z,20.88
2023-05-13T21:08:54.367Z,11.85
2023-05-13T21:11:19.153Z,12.13
2023-05-13T21:13:43.544Z,13.07
2023-05-13T21:16:15.308Z,15.88
2023-05-13T21:18:40.431Z,13.15
2023-05-13T21:21:08.706Z,14.65
2023-05-13T21:23:35.653Z,14.40
2023-05-13T21:26:05.447Z,10.57
2023-05-13T21:28:30.504Z,10.85
2023-05-13T21:30:55.282Z,13.77
2023-05-13T21:33:22.042Z,12.95
2023-05-13T21:35:46.912Z,12.13
2023-05-13T21:38:12.604Z,16.38
2023-05-13T21:40:38.985Z,14.57
2023-05-13T21:43:05.158Z,12.00
2023-05-13T21:45:29.742Z,12.25
2023-05-13T21:47:54.459Z,17.23
2023-05-13T21:50:19.005Z,12.75
2023-05-13T21:52:43.744Z,13.00
2023-05-13T21:55:09.203Z,13.75
2023-05-13T21:57:33.651Z,14.38
2023-05-13T21:59:59.742Z,14.45
2023-05-13T22:02:24.490Z,13.13
2023-05-13T22:04:49.050Z,15.32
2023-05-13T22:07:14.573Z,12.98
2023-05-13T22:09:39.188Z,15.68
2023-05-13T22:12:03.713Z,13.25
2023-05-13T22:14:28.257Z,10.63
2023-05-13T22:17:07.614Z,20.08
2023-05-13T22:19:36.779Z,16.05
2023-05-13T22:22:01.366Z,16.77
2023-05-13T22:24:26.833Z,19.70
2023-05-13T22:26:51.239Z,15.95
2023-05-13T22:29:15.765Z,14.10
2023-05-13T22:31:40.498Z,13.27
2023-05-13T22:34:06.470Z,13.63
2023-05-13T22:36:31.429Z,18.50
2023-05-13T22:38:56.079Z,12.85
2023-05-13T22:41:23.678Z,17.65
2023-05-13T22:43:48.254Z,13.85
2023-05-13T22:46:12.796Z,13.07
2023-05-13T22:48:37.399Z,13.98
2023-05-13T22:51:03.411Z,51.50
2023-05-13T22:53:27.868Z,33.65
2023-05-13T22:55:52.820Z,22.20
2023-05-13T22:58:18.493Z,21.52
2023-05-13T23:00:43.037Z,18.75
2023-05-13T23:03:07.651Z,19.23
2023-05-13T23:05:32.290Z,16.75
2023-05-13T23:07:58.410Z,20.48
2023-05-13T23:10:23.126Z,19.70
2023-05-13T23:12:47.770Z,14.68
2023-05-13T23:15:14.847Z,16.08
2023-05-13T23:17:39.719Z,19.85
2023-05-13T23:20:04.348Z,13.60
2023-05-13T23:22:30.026Z,14.48
2023-05-13T23:24:55.996Z,11.15
2023-05-13T23:27:20.855Z,17.73
2023-05-13T23:29:45.308Z,12.90
2023-05-13T23:32:09.905Z,15.90
2023-05-13T23:34:34.705Z,16.95
2023-05-13T23:36:59.230Z,14.15
2023-05-13T23:39:23.630Z,16.55
2023-05-13T23:41:50.139Z,18.25
2023-05-13T23:44:15.028Z,14.57
2023-05-13T23:46:41.176Z,20.08
2023-05-13T23:49:05.802Z,15.85
2023-05-13T23:51:30.458Z,17.40
2023-05-13T23:53:55.622Z,15.15
2023-05-13T23:56:20.231Z,17.17
2023-05-13T23:58:46.246Z,16.55
